sensor_id;sensor_type;location;lat;lon;timestamp;P1;durP1;ratioP1;P2;durP2;ratioP2
4047;SDS011;2038;51.728;6.674;2022-11-15T00:00:56;22.40;;;14.73;;
4047;SDS011;2038;51.728;6.674;2022-11-15T00:03:23;17.27;;;13.80;;
4047;SDS011;2038;51.728;6.674;2022-11-15T00:05:51;21.10;;;15.20;;
4047;SDS011;2038;51.728;6.674;2022-11-15T00:08:18;21.87;;;15.47;;
4047;SDS011;2038;51.728;6.674;2022-11-15T00:10:54;23.03;;;14.10;;
4047;SDS011;2038;51.728;6.674;2022-11-15T00:13:22;26.47;;;16.40;;
4047;SDS011;2038;51.728;6.674;2022-11-15T00:15:48;21.80;;;15.07;;
4047;SDS011;2038;51.728;6.674;2022-11-15T00:18:14;23.93;;;14.93;;
4047;SDS011;2038;51.728;6.674;2022-11-15T00:20:43;21.47;;;15.17;;
4047;SDS011;2038;51.728;6.674;2022-11-15T00:23:09;21.20;;;14.73;;
4047;SDS011;2038;51.728;6.674;2022-11-15T00:25:36;23.67;;;13.80;;
4047;SDS011;2038;51.728;6.674;2022-11-15T00:28:02;18.60;;;13.53;;
4047;SDS011;2038;51.728;6.674;2022-11-15T00:30:29;17.37;;;13.00;;
4047;SDS011;2038;51.728;6.674;2022-11-15T00:32:55;23.20;;;16.33;;
4047;SDS011;2038;51.728;6.674;2022-11-15T00:35:26;18.17;;;13.10;;
4047;SDS011;2038;51.728;6.674;2022-11-15T00:37:52;19.87;;;13.70;;
4047;SDS011;2038;51.728;6.674;2022-11-15T00:40:18;19.97;;;14.40;;
4047;SDS011;2038;51.728;6.674;2022-11-15T00:42:45;22.87;;;14.40;;
4047;SDS011;2038;51.728;6.674;2022-11-15T00:45:11;20.83;;;14.20;;
4047;SDS011;2038;51.728;6.674;2022-11-15T00:47:37;18.17;;;13.40;;
4047;SDS011;2038;51.728;6.674;2022-11-15T00:50:03;18.97;;;12.20;;
4047;SDS011;2038;51.728;6.674;2022-11-15T00:52:30;17.93;;;13.03;;
4047;SDS011;2038;51.728;6.674;2022-11-15T00:54:56;24.90;;;14.07;;
4047;SDS011;2038;51.728;6.674;2022-11-15T00:57:21;23.10;;;14.40;;
4047;SDS011;2038;51.728;6.674;2022-11-15T00:59:48;18.47;;;13.70;;
4047;SDS011;2038;51.728;6.674;2022-11-15T01:02:14;22.23;;;14.00;;
4047;SDS011;2038;51.728;6.674;2022-11-15T01:04:40;22.33;;;14.00;;
4047;SDS011;2038;51.728;6.674;2022-11-15T01:07:06;22.33;;;14.03;;
4047;SDS011;2038;51.728;6.674;2022-11-15T01:09:32;20.30;;;13.17;;
4047;SDS011;2038;51.728;6.674;2022-11-15T01:11:59;18.27;;;13.50;;
4047;SDS011;2038;51.728;6.674;2022-11-15T01:14:25;19.33;;;13.17;;
4047;SDS011;2038;51.728;6.674;2022-11-15T01:16:51;20.73;;;14.60;;
4047;SDS011;2038;51.728;6.674;2022-11-15T01:19:17;18.30;;;13.20;;
4047;SDS011;2038;51.728;6.674;2022-11-15T01:21:44;21.20;;;14.40;;
4047;SDS011;2038;51.728;6.674;2022-11-15T01:24:13;20.67;;;14.17;;
4047;SDS011;2038;51.728;6.674;2022-11-15T01:26:39;18.30;;;13.37;;
4047;SDS011;2038;51.728;6.674;2022-11-15T01:29:06;18.07;;;14.30;;
4047;SDS011;2038;51.728;6.674;2022-11-15T01:31:31;18.37;;;13.57;;
4047;SDS011;2038;51.728;6.674;2022-11-15T01:33:57;18.53;;;12.57;;
4047;SDS011;2038;51.728;6.674;2022-11-15T01:36:23;21.23;;;13.70;;
4047;SDS011;2038;51.728;6.674;2022-11-15T01:38:53;21.73;;;14.90;;
4047;SDS011;2038;51.728;6.674;2022-11-15T01:41:28;22.50;;;13.83;;
4047;SDS011;2038;51.728;6.674;2022-11-15T01:44:28;22.37;;;14.00;;
4047;SDS011;2038;51.728;6.674;2022-11-15T01:46:55;20.13;;;14.07;;
4047;SDS011;2038;51.728;6.674;2022-11-15T01:49:26;23.93;;;14.60;;
4047;SDS011;2038;51.728;6.674;2022-11-15T01:51:58;20.53;;;15.47;;
4047;SDS011;2038;51.728;6.674;2022-11-15T01:54:29;22.77;;;13.73;;
4047;SDS011;2038;51.728;6.674;2022-11-15T01:56:59;20.50;;;14.33;;
4047;SDS011;2038;51.728;6.674;2022-11-15T01:59:34;19.60;;;14.60;;
4047;SDS011;2038;51.728;6.674;2022-11-15T02:02:05;23.87;;;14.10;;
4047;SDS011;2038;51.728;6.674;2022-11-15T02:04:32;20.83;;;14.20;;
4047;SDS011;2038;51.728;6.674;2022-11-15T02:07:08;18.23;;;11.93;;
4047;SDS011;2038;51.728;6.674;2022-11-15T02:09:40;19.83;;;13.63;;
4047;SDS011;2038;51.728;6.674;2022-11-15T02:12:08;18.00;;;12.67;;
4047;SDS011;2038;51.728;6.674;2022-11-15T02:14:44;21.00;;;13.90;;
4047;SDS011;2038;51.728;6.674;2022-11-15T02:17:28;18.50;;;14.50;;
4047;SDS011;2038;51.728;6.674;2022-11-15T02:36:05;18.00;;;12.00;;
4047;SDS011;2038;51.728;6.674;2022-11-15T02:44:56;14.83;;;11.23;;
4047;SDS011;2038;51.728;6.674;2022-11-15T02:47:32;16.73;;;12.87;;
4047;SDS011;2038;51.728;6.674;2022-11-15T02:50:09;15.03;;;12.23;;
4047;SDS011;2038;51.728;6.674;2022-11-15T02:52:40;17.97;;;11.67;;
4047;SDS011;2038;51.728;6.674;2022-11-15T02:55:29;16.20;;;13.20;;
4047;SDS011;2038;51.728;6.674;2022-11-15T03:03:42;15.83;;;12.10;;
4047;SDS011;2038;51.728;6.674;2022-11-15T03:12:54;14.77;;;11.50;;
4047;SDS011;2038;51.728;6.674;2022-11-15T03:15:36;19.43;;;11.90;;
4047;SDS011;2038;51.728;6.674;2022-11-15T03:18:22;17.60;;;11.60;;
4047;SDS011;2038;51.728;6.674;2022-11-15T03:21:01;16.83;;;12.60;;
4047;SDS011;2038;51.728;6.674;2022-11-15T03:23:33;16.43;;;11.33;;
4047;SDS011;2038;51.728;6.674;2022-11-15T03:26:07;15.27;;;12.20;;
4047;SDS011;2038;51.728;6.674;2022-11-15T03:28:49;16.37;;;11.90;;
4047;SDS011;2038;51.728;6.674;2022-11-15T03:31:36;16.93;;;11.83;;
4047;SDS011;2038;51.728;6.674;2022-11-15T03:34:19;19.10;;;11.73;;
4047;SDS011;2038;51.728;6.674;2022-11-15T03:36:58;15.07;;;11.97;;
4047;SDS011;2038;51.728;6.674;2022-11-15T03:39:24;16.00;;;12.30;;
4047;SDS011;2038;51.728;6.674;2022-11-15T03:45:08;16.00;;;11.93;;
4047;SDS011;2038;51.728;6.674;2022-11-15T03:47:41;21.07;;;13.37;;
4047;SDS011;2038;51.728;6.674;2022-11-15T03:50:28;13.70;;;10.30;;
4047;SDS011;2038;51.728;6.674;2022-11-15T03:52:55;13.03;;;11.40;;
4047;SDS011;2038;51.728;6.674;2022-11-15T03:55:27;15.10;;;11.23;;
4047;SDS011;2038;51.728;6.674;2022-11-15T03:57:54;15.83;;;11.40;;
4047;SDS011;2038;51.728;6.674;2022-11-15T04:00:25;29.53;;;12.83;;
4047;SDS011;2038;51.728;6.674;2022-11-15T04:02:51;16.20;;;10.17;;
4047;SDS011;2038;51.728;6.674;2022-11-15T04:05:18;17.87;;;11.97;;
4047;SDS011;2038;51.728;6.674;2022-11-15T04:07:44;22.80;;;13.20;;
4047;SDS011;2038;51.728;6.674;2022-11-15T04:10:11;18.93;;;12.50;;
4047;SDS011;2038;51.728;6.674;2022-11-15T04:12:39;14.80;;;11.30;;
4047;SDS011;2038;51.728;6.674;2022-11-15T04:15:12;16.20;;;11.80;;
4047;SDS011;2038;51.728;6.674;2022-11-15T04:17:46;19.13;;;11.60;;
4047;SDS011;2038;51.728;6.674;2022-11-15T04:20:32;16.20;;;11.50;;
4047;SDS011;2038;51.728;6.674;2022-11-15T04:23:18;14.17;;;10.70;;
4047;SDS011;2038;51.728;6.674;2022-11-15T04:26:06;15.03;;;10.20;;
4047;SDS011;2038;51.728;6.674;2022-11-15T04:28:43;16.80;;;12.47;;
4047;SDS011;2038;51.728;6.674;2022-11-15T04:31:28;15.50;;;10.53;;
4047;SDS011;2038;51.728;6.674;2022-11-15T04:33:54;18.20;;;11.80;;
4047;SDS011;2038;51.728;6.674;2022-11-15T04:36:20;22.60;;;11.90;;
4047;SDS011;2038;51.728;6.674;2022-11-15T04:39:05;18.93;;;10.97;;
4047;SDS011;2038;51.728;6.674;2022-11-15T04:41:32;19.83;;;11.27;;
4047;SDS011;2038;51.728;6.674;2022-11-15T04:43:58;16.43;;;11.33;;
4047;SDS011;2038;51.728;6.674;2022-11-15T04:46:25;17.40;;;11.80;;
4047;SDS011;2038;51.728;6.674;2022-11-15T04:48:51;17.70;;;12.40;;
4047;SDS011;2038;51.728;6.674;2022-11-15T04:51:19;16.00;;;11.50;;
4047;SDS011;2038;51.728;6.674;2022-11-15T04:53:45;17.60;;;12.07;;
4047;SDS011;2038;51.728;6.674;2022-11-15T04:56:11;23.93;;;13.67;;
4047;SDS011;2038;51.728;6.674;2022-11-15T04:58:38;20.40;;;12.83;;
4047;SDS011;2038;51.728;6.674;2022-11-15T05:01:07;23.17;;;13.77;;
4047;SDS011;2038;51.728;6.674;2022-11-15T05:03:36;17.07;;;12.80;;
4047;SDS011;2038;51.728;6.674;2022-11-15T05:06:21;19.97;;;14.60;;
4047;SDS011;2038;51.728;6.674;2022-11-15T05:08:48;19.13;;;12.10;;
4047;SDS011;2038;51.728;6.674;2022-11-15T05:11:14;20.47;;;13.57;;
4047;SDS011;2038;51.728;6.674;2022-11-15T05:13:40;18.40;;;13.60;;
4047;SDS011;2038;51.728;6.674;2022-11-15T05:16:06;18.10;;;13.73;;
4047;SDS011;2038;51.728;6.674;2022-11-15T05:18:32;18.00;;;13.80;;
4047;SDS011;2038;51.728;6.674;2022-11-15T05:21:05;24.07;;;14.70;;
4047;SDS011;2038;51.728;6.674;2022-11-15T05:23:38;19.67;;;14.17;;
4047;SDS011;2038;51.728;6.674;2022-11-15T05:26:05;16.83;;;12.73;;
4047;SDS011;2038;51.728;6.674;2022-11-15T05:28:33;17.13;;;13.23;;
4047;SDS011;2038;51.728;6.674;2022-11-15T05:31:05;18.83;;;12.73;;
4047;SDS011;2038;51.728;6.674;2022-11-15T05:33:42;18.63;;;14.03;;
4047;SDS011;2038;51.728;6.674;2022-11-15T05:36:10;19.50;;;13.00;;
4047;SDS011;2038;51.728;6.674;2022-11-15T05:39:00;20.67;;;13.13;;
4047;SDS011;2038;51.728;6.674;2022-11-15T05:41:37;20.40;;;14.27;;
4047;SDS011;2038;51.728;6.674;2022-11-15T05:44:11;17.77;;;13.10;;
4047;SDS011;2038;51.728;6.674;2022-11-15T05:46:42;18.70;;;13.87;;
4047;SDS011;2038;51.728;6.674;2022-11-15T05:49:11;21.17;;;15.03;;
4047;SDS011;2038;51.728;6.674;2022-11-15T05:51:44;20.10;;;13.13;;
4047;SDS011;2038;51.728;6.674;2022-11-15T05:54:14;20.57;;;15.00;;
4047;SDS011;2038;51.728;6.674;2022-11-15T05:56:42;20.57;;;13.50;;
4047;SDS011;2038;51.728;6.674;2022-11-15T05:59:09;18.27;;;14.00;;
4047;SDS011;2038;51.728;6.674;2022-11-15T06:01:35;27.47;;;17.20;;
4047;SDS011;2038;51.728;6.674;2022-11-15T06:04:03;18.07;;;14.10;;
4047;SDS011;2038;51.728;6.674;2022-11-15T06:06:29;19.73;;;14.03;;
4047;SDS011;2038;51.728;6.674;2022-11-15T06:08:56;21.03;;;13.40;;
4047;SDS011;2038;51.728;6.674;2022-11-15T06:11:22;20.30;;;13.00;;
4047;SDS011;2038;51.728;6.674;2022-11-15T06:13:48;18.77;;;14.20;;
4047;SDS011;2038;51.728;6.674;2022-11-15T06:16:14;16.80;;;13.03;;
4047;SDS011;2038;51.728;6.674;2022-11-15T06:18:40;17.00;;;13.43;;
4047;SDS011;2038;51.728;6.674;2022-11-15T06:21:07;19.97;;;14.20;;
4047;SDS011;2038;51.728;6.674;2022-11-15T06:23:34;17.93;;;13.53;;
4047;SDS011;2038;51.728;6.674;2022-11-15T06:26:00;19.70;;;14.70;;
4047;SDS011;2038;51.728;6.674;2022-11-15T06:28:28;16.53;;;12.60;;
4047;SDS011;2038;51.728;6.674;2022-11-15T06:31:01;17.63;;;12.87;;
4047;SDS011;2038;51.728;6.674;2022-11-15T06:33:33;18.20;;;13.23;;
4047;SDS011;2038;51.728;6.674;2022-11-15T06:36:00;18.17;;;13.60;;
4047;SDS011;2038;51.728;6.674;2022-11-15T06:38:29;17.40;;;12.53;;
4047;SDS011;2038;51.728;6.674;2022-11-15T06:41:01;19.00;;;13.30;;
4047;SDS011;2038;51.728;6.674;2022-11-15T06:43:30;20.93;;;13.80;;
4047;SDS011;2038;51.728;6.674;2022-11-15T06:45:58;18.73;;;12.33;;
4047;SDS011;2038;51.728;6.674;2022-11-15T06:48:26;17.33;;;11.90;;
4047;SDS011;2038;51.728;6.674;2022-11-15T06:50:54;17.40;;;12.80;;
4047;SDS011;2038;51.728;6.674;2022-11-15T06:53:24;21.70;;;14.80;;
4047;SDS011;2038;51.728;6.674;2022-11-15T06:55:52;23.70;;;15.53;;
4047;SDS011;2038;51.728;6.674;2022-11-15T06:58:22;22.70;;;14.47;;
4047;SDS011;2038;51.728;6.674;2022-11-15T07:00:48;22.43;;;14.83;;
4047;SDS011;2038;51.728;6.674;2022-11-15T07:03:14;21.90;;;15.33;;
4047;SDS011;2038;51.728;6.674;2022-11-15T07:05:40;20.70;;;13.80;;
4047;SDS011;2038;51.728;6.674;2022-11-15T07:08:06;24.50;;;13.90;;
4047;SDS011;2038;51.728;6.674;2022-11-15T07:10:32;19.90;;;14.60;;
4047;SDS011;2038;51.728;6.674;2022-11-15T07:12:58;22.10;;;13.37;;
4047;SDS011;2038;51.728;6.674;2022-11-15T07:15:25;19.17;;;12.80;;
4047;SDS011;2038;51.728;6.674;2022-11-15T07:17:51;18.50;;;12.87;;
4047;SDS011;2038;51.728;6.674;2022-11-15T07:20:18;15.50;;;12.33;;
4047;SDS011;2038;51.728;6.674;2022-11-15T07:22:44;16.27;;;11.53;;
4047;SDS011;2038;51.728;6.674;2022-11-15T07:25:11;21.37;;;12.60;;
4047;SDS011;2038;51.728;6.674;2022-11-15T07:27:38;16.13;;;11.37;;
4047;SDS011;2038;51.728;6.674;2022-11-15T07:30:04;17.20;;;11.13;;
4047;SDS011;2038;51.728;6.674;2022-11-15T07:32:31;18.20;;;11.53;;
4047;SDS011;2038;51.728;6.674;2022-11-15T07:34:57;12.83;;;10.47;;
4047;SDS011;2038;51.728;6.674;2022-11-15T07:37:23;15.70;;;10.90;;
4047;SDS011;2038;51.728;6.674;2022-11-15T07:39:50;12.50;;;9.73;;
4047;SDS011;2038;51.728;6.674;2022-11-15T07:42:16;13.47;;;9.50;;
4047;SDS011;2038;51.728;6.674;2022-11-15T07:45:00;14.07;;;9.80;;
4047;SDS011;2038;51.728;6.674;2022-11-15T07:47:28;18.00;;;11.90;;
4047;SDS011;2038;51.728;6.674;2022-11-15T07:49:54;13.43;;;10.83;;
4047;SDS011;2038;51.728;6.674;2022-11-15T07:52:20;14.20;;;9.63;;
4047;SDS011;2038;51.728;6.674;2022-11-15T07:54:46;10.80;;;9.70;;
4047;SDS011;2038;51.728;6.674;2022-11-15T07:57:12;13.80;;;10.00;;
4047;SDS011;2038;51.728;6.674;2022-11-15T07:59:38;15.00;;;10.20;;
4047;SDS011;2038;51.728;6.674;2022-11-15T08:02:04;19.00;;;11.03;;
4047;SDS011;2038;51.728;6.674;2022-11-15T08:04:30;20.17;;;11.37;;
4047;SDS011;2038;51.728;6.674;2022-11-15T08:06:56;14.60;;;9.23;;
4047;SDS011;2038;51.728;6.674;2022-11-15T08:09:22;10.87;;;7.50;;
4047;SDS011;2038;51.728;6.674;2022-11-15T08:11:48;7.70;;;6.30;;
4047;SDS011;2038;51.728;6.674;2022-11-15T08:14:13;9.07;;;7.40;;
4047;SDS011;2038;51.728;6.674;2022-11-15T08:16:39;7.87;;;6.53;;
4047;SDS011;2038;51.728;6.674;2022-11-15T08:19:05;9.30;;;5.63;;
4047;SDS011;2038;51.728;6.674;2022-11-15T08:21:31;8.50;;;6.50;;
4047;SDS011;2038;51.728;6.674;2022-11-15T08:23:56;10.37;;;6.20;;
4047;SDS011;2038;51.728;6.674;2022-11-15T08:26:22;7.23;;;5.47;;
4047;SDS011;2038;51.728;6.674;2022-11-15T08:28:49;12.83;;;5.13;;
4047;SDS011;2038;51.728;6.674;2022-11-15T08:31:16;7.20;;;5.87;;
4047;SDS011;2038;51.728;6.674;2022-11-15T08:33:44;6.60;;;4.97;;
4047;SDS011;2038;51.728;6.674;2022-11-15T08:36:12;6.30;;;5.23;;
4047;SDS011;2038;51.728;6.674;2022-11-15T08:38:41;8.20;;;5.60;;
4047;SDS011;2038;51.728;6.674;2022-11-15T08:41:12;12.60;;;5.23;;
4047;SDS011;2038;51.728;6.674;2022-11-15T08:43:50;4.83;;;4.33;;
4047;SDS011;2038;51.728;6.674;2022-11-15T08:46:17;5.77;;;4.87;;
4047;SDS011;2038;51.728;6.674;2022-11-15T08:48:43;4.30;;;3.90;;
4047;SDS011;2038;51.728;6.674;2022-11-15T08:51:10;5.00;;;4.50;;
4047;SDS011;2038;51.728;6.674;2022-11-15T08:53:36;4.97;;;4.20;;
4047;SDS011;2038;51.728;6.674;2022-11-15T08:56:02;10.00;;;4.10;;
4047;SDS011;2038;51.728;6.674;2022-11-15T08:58:34;6.10;;;4.13;;
4047;SDS011;2038;51.728;6.674;2022-11-15T09:01:02;5.10;;;3.93;;
4047;SDS011;2038;51.728;6.674;2022-11-15T09:03:29;5.67;;;4.63;;
4047;SDS011;2038;51.728;6.674;2022-11-15T09:05:57;4.10;;;3.43;;
4047;SDS011;2038;51.728;6.674;2022-11-15T09:08:29;8.53;;;4.37;;
4047;SDS011;2038;51.728;6.674;2022-11-15T09:10:57;6.70;;;4.17;;
4047;SDS011;2038;51.728;6.674;2022-11-15T09:13:28;12.13;;;3.90;;
4047;SDS011;2038;51.728;6.674;2022-11-15T09:15:59;3.50;;;3.20;;
4047;SDS011;2038;51.728;6.674;2022-11-15T09:18:26;3.97;;;3.10;;
4047;SDS011;2038;51.728;6.674;2022-11-15T09:20:58;4.20;;;2.73;;
4047;SDS011;2038;51.728;6.674;2022-11-15T09:23:27;6.13;;;2.70;;
4047;SDS011;2038;51.728;6.674;2022-11-15T09:25:57;4.60;;;2.80;;
4047;SDS011;2038;51.728;6.674;2022-11-15T09:28:29;3.90;;;2.70;;
4047;SDS011;2038;51.728;6.674;2022-11-15T09:30:58;3.83;;;2.40;;
4047;SDS011;2038;51.728;6.674;2022-11-15T09:33:27;3.40;;;2.43;;
4047;SDS011;2038;51.728;6.674;2022-11-15T09:35:54;5.43;;;3.03;;
4047;SDS011;2038;51.728;6.674;2022-11-15T09:38:28;5.07;;;2.60;;
4047;SDS011;2038;51.728;6.674;2022-11-15T09:49:35;6.33;;;2.40;;
4047;SDS011;2038;51.728;6.674;2022-11-15T09:52:01;3.20;;;2.53;;
4047;SDS011;2038;51.728;6.674;2022-11-15T09:54:38;3.73;;;2.10;;
4047;SDS011;2038;51.728;6.674;2022-11-15T09:57:15;6.67;;;2.87;;
4047;SDS011;2038;51.728;6.674;2022-11-15T10:00:09;13.43;;;3.47;;
4047;SDS011;2038;51.728;6.674;2022-11-15T10:02:58;7.00;;;3.23;;
4047;SDS011;2038;51.728;6.674;2022-11-15T10:05:50;7.43;;;3.20;;
4047;SDS011;2038;51.728;6.674;2022-11-15T10:11:11;9.13;;;3.23;;
4047;SDS011;2038;51.728;6.674;2022-11-15T10:13:46;7.70;;;3.43;;
4047;SDS011;2038;51.728;6.674;2022-11-15T10:16:21;7.40;;;3.57;;
4047;SDS011;2038;51.728;6.674;2022-11-15T10:19:16;7.23;;;4.30;;
4047;SDS011;2038;51.728;6.674;2022-11-15T10:27:52;8.10;;;3.57;;
4047;SDS011;2038;51.728;6.674;2022-11-15T10:30:55;6.53;;;3.50;;
4047;SDS011;2038;51.728;6.674;2022-11-15T10:36:14;5.57;;;3.13;;
4047;SDS011;2038;51.728;6.674;2022-11-15T10:41:17;4.50;;;3.20;;
4047;SDS011;2038;51.728;6.674;2022-11-15T10:44:08;4.00;;;3.33;;
4047;SDS011;2038;51.728;6.674;2022-11-15T10:46:41;6.47;;;2.93;;
4047;SDS011;2038;51.728;6.674;2022-11-15T10:49:31;6.90;;;3.23;;
4047;SDS011;2038;51.728;6.674;2022-11-15T10:52:02;6.50;;;3.23;;
4047;SDS011;2038;51.728;6.674;2022-11-15T10:57:29;11.13;;;3.80;;
4047;SDS011;2038;51.728;6.674;2022-11-15T11:00:06;4.20;;;3.60;;
4047;SDS011;2038;51.728;6.674;2022-11-15T11:03:04;3.80;;;3.33;;
4047;SDS011;2038;51.728;6.674;2022-11-15T11:06:06;6.43;;;4.43;;
4047;SDS011;2038;51.728;6.674;2022-11-15T11:09:02;7.73;;;5.00;;
4047;SDS011;2038;51.728;6.674;2022-11-15T11:11:46;7.07;;;4.70;;
4047;SDS011;2038;51.728;6.674;2022-11-15T11:23:14;5.90;;;3.50;;
4047;SDS011;2038;51.728;6.674;2022-11-15T11:29:15;4.30;;;3.77;;
4047;SDS011;2038;51.728;6.674;2022-11-15T11:48:45;8.13;;;3.60;;
4047;SDS011;2038;51.728;6.674;2022-11-15T11:51:32;6.87;;;4.10;;
4047;SDS011;2038;51.728;6.674;2022-11-15T11:54:12;7.73;;;4.53;;
4047;SDS011;2038;51.728;6.674;2022-11-15T11:57:22;8.30;;;4.20;;
4047;SDS011;2038;51.728;6.674;2022-11-15T12:00:14;4.07;;;3.67;;
4047;SDS011;2038;51.728;6.674;2022-11-15T12:02:57;9.33;;;2.70;;
4047;SDS011;2038;51.728;6.674;2022-11-15T12:05:43;9.73;;;3.00;;
4047;SDS011;2038;51.728;6.674;2022-11-15T12:08:27;5.07;;;2.80;;
4047;SDS011;2038;51.728;6.674;2022-11-15T12:14:03;4.37;;;2.33;;
4047;SDS011;2038;51.728;6.674;2022-11-15T12:16:51;3.87;;;3.13;;
4047;SDS011;2038;51.728;6.674;2022-11-15T12:19:16;4.67;;;3.30;;
4047;SDS011;2038;51.728;6.674;2022-11-15T12:24:29;5.33;;;3.00;;
4047;SDS011;2038;51.728;6.674;2022-11-15T12:27:14;5.63;;;3.70;;
4047;SDS011;2038;51.728;6.674;2022-11-15T12:30:08;6.90;;;3.20;;
4047;SDS011;2038;51.728;6.674;2022-11-15T12:32:54;5.40;;;3.00;;
4047;SDS011;2038;51.728;6.674;2022-11-15T12:35:34;12.10;;;2.27;;
4047;SDS011;2038;51.728;6.674;2022-11-15T12:38:09;3.77;;;2.50;;
4047;SDS011;2038;51.728;6.674;2022-11-15T12:40:38;9.77;;;2.93;;
4047;SDS011;2038;51.728;6.674;2022-11-15T12:43:39;4.63;;;2.83;;
4047;SDS011;2038;51.728;6.674;2022-11-15T12:46:22;7.50;;;2.87;;
4047;SDS011;2038;51.728;6.674;2022-11-15T12:54:47;4.87;;;2.87;;
4047;SDS011;2038;51.728;6.674;2022-11-15T13:04:55;5.70;;;2.80;;
4047;SDS011;2038;51.728;6.674;2022-11-15T13:17:50;4.07;;;2.17;;
4047;SDS011;2038;51.728;6.674;2022-11-15T13:20:20;3.83;;;2.43;;
4047;SDS011;2038;51.728;6.674;2022-11-15T13:28:27;2.70;;;1.60;;
4047;SDS011;2038;51.728;6.674;2022-11-15T13:34:24;2.80;;;1.80;;
4047;SDS011;2038;51.728;6.674;2022-11-15T13:37:02;6.63;;;1.60;;
4047;SDS011;2038;51.728;6.674;2022-11-15T13:39:32;2.40;;;1.20;;
4047;SDS011;2038;51.728;6.674;2022-11-15T13:42:02;2.60;;;1.50;;
4047;SDS011;2038;51.728;6.674;2022-11-15T13:44:30;2.37;;;1.50;;
4047;SDS011;2038;51.728;6.674;2022-11-15T13:47:02;9.17;;;1.97;;
4047;SDS011;2038;51.728;6.674;2022-11-15T13:49:40;1.77;;;1.57;;
4047;SDS011;2038;51.728;6.674;2022-11-15T13:52:07;4.90;;;2.17;;
4047;SDS011;2038;51.728;6.674;2022-11-15T13:54:43;7.20;;;1.77;;
4047;SDS011;2038;51.728;6.674;2022-11-15T13:57:36;2.67;;;1.60;;
4047;SDS011;2038;51.728;6.674;2022-11-15T14:03:23;5.37;;;1.80;;
4047;SDS011;2038;51.728;6.674;2022-11-15T14:06:04;2.53;;;1.80;;
4047;SDS011;2038;51.728;6.674;2022-11-15T14:11:54;1.67;;;1.30;;
4047;SDS011;2038;51.728;6.674;2022-11-15T14:14:22;2.40;;;1.37;;
4047;SDS011;2038;51.728;6.674;2022-11-15T14:16:54;3.20;;;1.27;;
4047;SDS011;2038;51.728;6.674;2022-11-15T14:22:07;6.63;;;1.80;;
4047;SDS011;2038;51.728;6.674;2022-11-15T14:24:33;2.53;;;1.40;;
4047;SDS011;2038;51.728;6.674;2022-11-15T14:27:19;3.37;;;1.40;;
4047;SDS011;2038;51.728;6.674;2022-11-15T14:29:54;8.20;;;2.03;;
4047;SDS011;2038;51.728;6.674;2022-11-15T14:37:32;7.37;;;1.63;;
4047;SDS011;2038;51.728;6.674;2022-11-15T14:40:00;4.43;;;1.70;;
4047;SDS011;2038;51.728;6.674;2022-11-15T14:42:29;5.13;;;1.40;;
4047;SDS011;2038;51.728;6.674;2022-11-15T14:44:56;2.37;;;1.63;;
4047;SDS011;2038;51.728;6.674;2022-11-15T14:47:22;9.43;;;1.63;;
4047;SDS011;2038;51.728;6.674;2022-11-15T14:49:49;4.70;;;1.40;;
4047;SDS011;2038;51.728;6.674;2022-11-15T14:52:31;4.57;;;1.50;;
4047;SDS011;2038;51.728;6.674;2022-11-15T14:55:01;4.83;;;1.90;;
4047;SDS011;2038;51.728;6.674;2022-11-15T14:57:43;4.37;;;1.60;;
4047;SDS011;2038;51.728;6.674;2022-11-15T15:00:10;3.03;;;1.83;;
4047;SDS011;2038;51.728;6.674;2022-11-15T15:02:38;7.37;;;1.83;;
4047;SDS011;2038;51.728;6.674;2022-11-15T15:05:14;6.27;;;2.20;;
4047;SDS011;2038;51.728;6.674;2022-11-15T15:07:48;8.97;;;2.40;;
4047;SDS011;2038;51.728;6.674;2022-11-15T15:10:17;5.27;;;1.83;;
4047;SDS011;2038;51.728;6.674;2022-11-15T15:12:44;3.50;;;1.87;;
4047;SDS011;2038;51.728;6.674;2022-11-15T15:15:15;3.77;;;1.70;;
4047;SDS011;2038;51.728;6.674;2022-11-15T15:17:57;5.63;;;2.03;;
4047;SDS011;2038;51.728;6.674;2022-11-15T15:20:23;2.30;;;1.90;;
4047;SDS011;2038;51.728;6.674;2022-11-15T15:22:49;4.63;;;1.70;;
4047;SDS011;2038;51.728;6.674;2022-11-15T15:25:19;5.73;;;1.40;;
4047;SDS011;2038;51.728;6.674;2022-11-15T15:27:47;3.47;;;2.30;;
4047;SDS011;2038;51.728;6.674;2022-11-15T15:30:14;3.33;;;1.90;;
4047;SDS011;2038;51.728;6.674;2022-11-15T15:32:40;4.63;;;1.50;;
4047;SDS011;2038;51.728;6.674;2022-11-15T15:35:07;3.50;;;1.57;;
4047;SDS011;2038;51.728;6.674;2022-11-15T15:37:39;5.37;;;2.00;;
4047;SDS011;2038;51.728;6.674;2022-11-15T15:42:47;5.43;;;2.57;;
4047;SDS011;2038;51.728;6.674;2022-11-15T15:45:14;2.73;;;2.20;;
4047;SDS011;2038;51.728;6.674;2022-11-15T15:47:43;5.20;;;1.63;;
4047;SDS011;2038;51.728;6.674;2022-11-15T15:50:14;2.60;;;2.20;;
4047;SDS011;2038;51.728;6.674;2022-11-15T15:52:51;10.73;;;3.37;;
4047;SDS011;2038;51.728;6.674;2022-11-15T15:55:22;4.73;;;2.30;;
4047;SDS011;2038;51.728;6.674;2022-11-15T15:57:50;4.13;;;2.93;;
4047;SDS011;2038;51.728;6.674;2022-11-15T16:00:19;4.37;;;3.20;;
4047;SDS011;2038;51.728;6.674;2022-11-15T16:02:48;3.30;;;2.20;;
4047;SDS011;2038;51.728;6.674;2022-11-15T16:05:15;6.93;;;3.63;;
4047;SDS011;2038;51.728;6.674;2022-11-15T16:07:42;4.70;;;3.10;;
4047;SDS011;2038;51.728;6.674;2022-11-15T16:12:52;4.30;;;2.47;;
4047;SDS011;2038;51.728;6.674;2022-11-15T16:15:20;4.40;;;2.93;;
4047;SDS011;2038;51.728;6.674;2022-11-15T16:17:50;5.70;;;3.10;;
4047;SDS011;2038;51.728;6.674;2022-11-15T16:23:02;6.60;;;3.40;;
4047;SDS011;2038;51.728;6.674;2022-11-15T16:25:41;6.43;;;3.17;;
4047;SDS011;2038;51.728;6.674;2022-11-15T16:31:10;4.13;;;2.93;;
4047;SDS011;2038;51.728;6.674;2022-11-15T16:33:38;6.60;;;2.70;;
4047;SDS011;2038;51.728;6.674;2022-11-15T16:36:05;3.93;;;3.00;;
4047;SDS011;2038;51.728;6.674;2022-11-15T16:38:44;4.70;;;3.20;;
4047;SDS011;2038;51.728;6.674;2022-11-15T16:41:12;4.73;;;3.10;;
4047;SDS011;2038;51.728;6.674;2022-11-15T16:43:38;6.70;;;3.43;;
4047;SDS011;2038;51.728;6.674;2022-11-15T16:46:15;3.60;;;3.27;;
4047;SDS011;2038;51.728;6.674;2022-11-15T16:48:48;9.90;;;3.40;;
4047;SDS011;2038;51.728;6.674;2022-11-15T16:51:16;5.67;;;3.00;;
4047;SDS011;2038;51.728;6.674;2022-11-15T16:53:42;8.10;;;5.40;;
4047;SDS011;2038;51.728;6.674;2022-11-15T16:56:30;10.10;;;4.70;;
4047;SDS011;2038;51.728;6.674;2022-11-15T16:58:56;8.13;;;4.40;;
4047;SDS011;2038;51.728;6.674;2022-11-15T17:01:25;3.63;;;3.20;;
4047;SDS011;2038;51.728;6.674;2022-11-15T17:04:19;7.93;;;4.57;;
4047;SDS011;2038;51.728;6.674;2022-11-15T17:06:47;7.57;;;4.70;;
4047;SDS011;2038;51.728;6.674;2022-11-15T17:09:17;6.50;;;4.20;;
4047;SDS011;2038;51.728;6.674;2022-11-15T17:11:49;13.07;;;3.90;;
4047;SDS011;2038;51.728;6.674;2022-11-15T17:14:16;7.00;;;4.40;;
4047;SDS011;2038;51.728;6.674;2022-11-15T17:16:43;6.20;;;4.00;;
4047;SDS011;2038;51.728;6.674;2022-11-15T17:19:16;4.60;;;3.70;;
4047;SDS011;2038;51.728;6.674;2022-11-15T17:21:45;6.40;;;3.57;;
4047;SDS011;2038;51.728;6.674;2022-11-15T17:24:15;5.10;;;4.07;;
4047;SDS011;2038;51.728;6.674;2022-11-15T17:26:41;13.43;;;3.80;;
4047;SDS011;2038;51.728;6.674;2022-11-15T17:29:07;8.40;;;4.37;;
4047;SDS011;2038;51.728;6.674;2022-11-15T17:31:34;5.87;;;4.10;;
4047;SDS011;2038;51.728;6.674;2022-11-15T17:34:01;7.67;;;4.10;;
4047;SDS011;2038;51.728;6.674;2022-11-15T17:36:29;9.87;;;4.30;;
4047;SDS011;2038;51.728;6.674;2022-11-15T17:38:56;6.33;;;4.00;;
4047;SDS011;2038;51.728;6.674;2022-11-15T17:41:22;9.77;;;4.40;;
4047;SDS011;2038;51.728;6.674;2022-11-15T17:43:49;5.10;;;4.60;;
4047;SDS011;2038;51.728;6.674;2022-11-15T17:46:18;6.73;;;3.90;;
4047;SDS011;2038;51.728;6.674;2022-11-15T17:48:45;5.70;;;3.40;;
4047;SDS011;2038;51.728;6.674;2022-11-15T17:51:13;5.83;;;4.53;;
4047;SDS011;2038;51.728;6.674;2022-11-15T17:53:43;5.43;;;4.20;;
4047;SDS011;2038;51.728;6.674;2022-11-15T17:56:13;5.83;;;4.03;;
4047;SDS011;2038;51.728;6.674;2022-11-15T17:58:49;6.10;;;4.53;;
4047;SDS011;2038;51.728;6.674;2022-11-15T18:01:23;6.47;;;3.70;;
4047;SDS011;2038;51.728;6.674;2022-11-15T18:03:56;5.37;;;4.13;;